ELY5216 LGKF-LLBG
Flight info
| Callsign | ELY5216 |
|---|---|
| Flight time | 2h 2m |
| Altitude | 39000 |
| Route | ARA DCT KEA UL52 VAXOS DCT ZUKKO |
| Aircraft | B738/M-SDE2E3FGHIJ1LORVWXY/LB1 |
Departure
| Time | 2026-05-09 09:05 |
|---|---|
| Airport | Kefallinia Airport (LGKF) |
Arrival
| Time | 2026-05-09 11:08 |
|---|---|
| Airport | Ben Gurion International Airport (LLBG) |
| Time | Latitude | Longitude | Altitude | Speed | Heading |
|---|---|---|---|---|---|
| 2026-05-09 08:40 | 38.11856 | 20.50430 | 57 ft | 0 kts | 55° |
| 2026-05-09 08:57 | 38.11850 | 20.50417 | 52 ft | 4 kts | 7° |
| 2026-05-09 08:58 | 38.11832 | 20.50427 | 55 ft | 4 kts | 325° |
| 2026-05-09 08:58 | 38.11823 | 20.50435 | 55 ft | 0 kts | 328° |
| 2026-05-09 09:00 | 38.11826 | 20.50431 | 60 ft | 2 kts | 316° |
| 2026-05-09 09:01 | 38.11829 | 20.50393 | 58 ft | 7 kts | 262° |
| 2026-05-09 09:01 | 38.11869 | 20.50316 | 59 ft | 15 kts | 335° |
| 2026-05-09 09:01 | 38.11895 | 20.50262 | 57 ft | 8 kts | 275° |
| 2026-05-09 09:01 | 38.11889 | 20.50188 | 55 ft | 9 kts | 263° |
| 2026-05-09 09:02 | 38.11920 | 20.50120 | 54 ft | 11 kts | 326° |
| 2026-05-09 09:02 | 38.12006 | 20.50047 | 53 ft | 18 kts | 326° |
| 2026-05-09 09:02 | 38.12129 | 20.49943 | 51 ft | 25 kts | 326° |
| 2026-05-09 09:02 | 38.12286 | 20.49810 | 50 ft | 27 kts | 326° |
| 2026-05-09 09:03 | 38.12441 | 20.49680 | 52 ft | 25 kts | 327° |
| 2026-05-09 09:03 | 38.12582 | 20.49563 | 50 ft | 24 kts | 326° |
| 2026-05-09 09:03 | 38.12715 | 20.49451 | 47 ft | 23 kts | 326° |
| 2026-05-09 09:03 | 38.12830 | 20.49323 | 45 ft | 22 kts | 292° |
| 2026-05-09 09:04 | 38.12897 | 20.49300 | 42 ft | 7 kts | 94° |
| 2026-05-09 09:04 | 38.12857 | 20.49332 | 44 ft | 4 kts | 147° |
| 2026-05-09 09:05 | 38.12773 | 20.49402 | 46 ft | 48 kts | 147° |
| 2026-05-09 09:05 | 38.12269 | 20.49826 | 55 ft | 123 kts | 146° |
| 2026-05-09 09:05 | 38.11413 | 20.50548 | 307 ft | 161 kts | 147° |
| 2026-05-09 09:05 | 38.10477 | 20.51334 | 1175 ft | 166 kts | 147° |
| 2026-05-09 09:06 | 38.09513 | 20.52169 | 1964 ft | 174 kts | 147° |
| 2026-05-09 09:06 | 38.08414 | 20.53127 | 2325 ft | 206 kts | 147° |
| 2026-05-09 09:06 | 38.07200 | 20.54190 | 2878 ft | 217 kts | 147° |
| 2026-05-09 09:06 | 38.05951 | 20.55281 | 3542 ft | 226 kts | 147° |
| 2026-05-09 09:07 | 38.04668 | 20.56404 | 4399 ft | 227 kts | 147° |
| 2026-05-09 09:07 | 38.03358 | 20.57550 | 5229 ft | 231 kts | 147° |
| 2026-05-09 09:07 | 38.02026 | 20.58713 | 6024 ft | 235 kts | 147° |
| 2026-05-09 09:07 | 38.00656 | 20.59908 | 6783 ft | 240 kts | 148° |
| 2026-05-09 09:08 | 37.99256 | 20.61128 | 7514 ft | 246 kts | 148° |
| 2026-05-09 09:08 | 37.97846 | 20.62356 | 8238 ft | 251 kts | 149° |
| 2026-05-09 09:08 | 37.96280 | 20.63405 | 8749 ft | 261 kts | 169° |
| 2026-05-09 09:08 | 37.94472 | 20.63584 | 9383 ft | 261 kts | 193° |
| 2026-05-09 09:09 | 37.92780 | 20.62850 | 10157 ft | 256 kts | 216° |
| 2026-05-09 09:09 | 37.91470 | 20.61386 | 10900 ft | 251 kts | 237° |
| 2026-05-09 09:09 | 37.90700 | 20.59432 | 11671 ft | 247 kts | 258° |
| 2026-05-09 09:09 | 37.90550 | 20.57279 | 12483 ft | 247 kts | 277° |
| 2026-05-09 09:10 | 37.91026 | 20.55196 | 13311 ft | 249 kts | 296° |
| 2026-05-09 09:10 | 37.92088 | 20.53445 | 14158 ft | 256 kts | 315° |
| 2026-05-09 09:10 | 37.93652 | 20.52302 | 14926 ft | 267 kts | 336° |
| 2026-05-09 09:10 | 37.95517 | 20.51884 | 15732 ft | 276 kts | 348° |
| 2026-05-09 09:11 | 37.97423 | 20.51702 | 16555 ft | 279 kts | 349° |
| 2026-05-09 09:11 | 37.99372 | 20.51547 | 17349 ft | 282 kts | 349° |
| 2026-05-09 09:11 | 38.01339 | 20.51388 | 18148 ft | 284 kts | 349° |
| 2026-05-09 09:11 | 38.03318 | 20.51217 | 18864 ft | 286 kts | 348° |
| 2026-05-09 09:12 | 38.05308 | 20.51037 | 19606 ft | 286 kts | 347° |
| 2026-05-09 09:12 | 38.07300 | 20.50850 | 20349 ft | 287 kts | 347° |
| 2026-05-09 09:12 | 38.09278 | 20.50661 | 21074 ft | 288 kts | 346° |
| 2026-05-09 09:12 | 38.11283 | 20.50470 | 21795 ft | 289 kts | 346° |
| 2026-05-09 09:13 | 38.13361 | 20.50672 | 22063 ft | 325 kts | 4° |
| 2026-05-09 09:13 | 38.15573 | 20.51841 | 22218 ft | 362 kts | 20° |
| 2026-05-09 09:13 | 38.17659 | 20.53923 | 22362 ft | 400 kts | 38° |
| 2026-05-09 09:13 | 38.19248 | 20.57016 | 22565 ft | 438 kts | 63° |
| 2026-05-09 09:14 | 38.19849 | 20.60856 | 23009 ft | 460 kts | 86° |
| 2026-05-09 09:14 | 38.19325 | 20.64921 | 23527 ft | 473 kts | 109° |
| 2026-05-09 09:14 | 38.17741 | 20.68609 | 23890 ft | 477 kts | 128° |
| 2026-05-09 09:14 | 38.15840 | 20.72081 | 24394 ft | 479 kts | 124° |
| 2026-05-09 09:15 | 38.14120 | 20.75720 | 24762 ft | 485 kts | 114° |
| 2026-05-09 09:15 | 38.13150 | 20.79790 | 25160 ft | 488 kts | 96° |
| 2026-05-09 09:15 | 38.13013 | 20.84080 | 25650 ft | 483 kts | 82° |
| 2026-05-09 09:15 | 38.13229 | 20.88347 | 26181 ft | 484 kts | 81° |
| 2026-05-09 09:16 | 38.13493 | 20.92628 | 26630 ft | 487 kts | 80° |
| 2026-05-09 09:16 | 38.14007 | 21.01281 | 27413 ft | 495 kts | 81° |
| 2026-05-09 09:16 | 38.14233 | 21.05664 | 27826 ft | 499 kts | 81° |
| 2026-05-09 09:17 | 38.14441 | 21.10024 | 28228 ft | 502 kts | 81° |
| 2026-05-09 09:17 | 38.14643 | 21.14469 | 28638 ft | 505 kts | 81° |
| 2026-05-09 09:17 | 38.14844 | 21.18942 | 28956 ft | 510 kts | 81° |
| 2026-05-09 09:17 | 38.15045 | 21.23466 | 29296 ft | 514 kts | 81° |
| 2026-05-09 09:18 | 38.15248 | 21.28031 | 29669 ft | 517 kts | 81° |
| 2026-05-09 09:18 | 38.15451 | 21.32610 | 30031 ft | 520 kts | 81° |
| 2026-05-09 09:18 | 38.15655 | 21.37210 | 30346 ft | 523 kts | 81° |
| 2026-05-09 09:18 | 38.15834 | 21.41841 | 30643 ft | 528 kts | 85° |
| 2026-05-09 09:19 | 38.15438 | 21.46524 | 30912 ft | 538 kts | 101° |
| 2026-05-09 09:19 | 38.14529 | 21.51142 | 31265 ft | 540 kts | 103° |
| 2026-05-09 09:19 | 38.13551 | 21.55755 | 31604 ft | 541 kts | 103° |
| 2026-05-09 09:19 | 38.12560 | 21.60369 | 31984 ft | 541 kts | 103° |
| 2026-05-09 09:20 | 38.11587 | 21.64968 | 32413 ft | 539 kts | 103° |
| 2026-05-09 09:20 | 38.10634 | 21.69579 | 32849 ft | 538 kts | 103° |
| 2026-05-09 09:20 | 38.09716 | 21.74113 | 33244 ft | 537 kts | 102° |
| 2026-05-09 09:20 | 38.08797 | 21.78709 | 33618 ft | 537 kts | 102° |
| 2026-05-09 09:21 | 38.07882 | 21.83312 | 33989 ft | 537 kts | 102° |
| 2026-05-09 09:21 | 38.06970 | 21.87901 | 34341 ft | 536 kts | 102° |
| 2026-05-09 09:21 | 38.06055 | 21.92487 | 34730 ft | 534 kts | 103° |
| 2026-05-09 09:21 | 38.05145 | 21.97036 | 35087 ft | 531 kts | 103° |
| 2026-05-09 09:22 | 38.04234 | 22.01564 | 35489 ft | 529 kts | 103° |
| 2026-05-09 09:22 | 38.03326 | 22.06066 | 35849 ft | 527 kts | 103° |
| 2026-05-09 09:22 | 38.02414 | 22.10573 | 36154 ft | 526 kts | 103° |
| 2026-05-09 09:22 | 38.01505 | 22.15059 | 36500 ft | 525 kts | 103° |
| 2026-05-09 09:23 | 38.00595 | 22.19543 | 36872 ft | 523 kts | 103° |
| 2026-05-09 09:23 | 37.99687 | 22.24003 | 37062 ft | 523 kts | 103° |
| 2026-05-09 09:23 | 37.97864 | 22.32946 | 37042 ft | 525 kts | 103° |
| 2026-05-09 09:24 | 37.96034 | 22.41869 | 37044 ft | 525 kts | 103° |
| 2026-05-09 09:24 | 37.94219 | 22.50719 | 37049 ft | 525 kts | 104° |
| 2026-05-09 09:25 | 37.92369 | 22.59645 | 37054 ft | 523 kts | 104° |
| 2026-05-09 09:25 | 37.90514 | 22.68562 | 37054 ft | 523 kts | 104° |
| 2026-05-09 09:26 | 37.88968 | 22.75980 | 37048 ft | 523 kts | 104° |
| 2026-05-09 09:26 | 37.87103 | 22.84904 | 37043 ft | 525 kts | 104° |
| 2026-05-09 09:27 | 37.85232 | 22.93812 | 37042 ft | 526 kts | 104° |
| 2026-05-09 09:27 | 37.83031 | 23.04244 | 37046 ft | 527 kts | 104° |
| 2026-05-09 09:28 | 37.81451 | 23.11708 | 37067 ft | 528 kts | 104° |
| 2026-05-09 09:28 | 37.79535 | 23.20725 | 37042 ft | 530 kts | 105° |
| 2026-05-09 09:29 | 37.77614 | 23.29719 | 37041 ft | 530 kts | 105° |
| 2026-05-09 09:29 | 37.75696 | 23.38664 | 37037 ft | 529 kts | 105° |
| 2026-05-09 09:30 | 37.73765 | 23.47639 | 37047 ft | 529 kts | 105° |
| 2026-05-09 09:30 | 37.71826 | 23.56611 | 37038 ft | 528 kts | 105° |
| 2026-05-09 09:31 | 37.69898 | 23.65497 | 37048 ft | 527 kts | 105° |
| 2026-05-09 09:32 | 37.66976 | 23.78900 | 37051 ft | 526 kts | 105° |
| 2026-05-09 09:32 | 37.65037 | 23.87754 | 37049 ft | 525 kts | 105° |
| 2026-05-09 09:33 | 37.63080 | 23.96649 | 37051 ft | 524 kts | 105° |
| 2026-05-09 09:33 | 37.61120 | 24.05528 | 37051 ft | 524 kts | 105° |
| 2026-05-09 09:34 | 37.59168 | 24.14333 | 37052 ft | 523 kts | 105° |
| 2026-05-09 09:34 | 37.57202 | 24.23174 | 37053 ft | 523 kts | 105° |
| 2026-05-09 09:36 | 37.45215 | 24.50891 | 37056 ft | 517 kts | 126° |
| 2026-05-09 09:36 | 37.43281 | 24.54716 | 37061 ft | 517 kts | 125° |
| 2026-05-09 09:37 | 37.39447 | 24.62349 | 37064 ft | 517 kts | 125° |
| 2026-05-09 09:37 | 37.35617 | 24.69976 | 37072 ft | 518 kts | 125° |
| 2026-05-09 09:38 | 37.31759 | 24.77631 | 37070 ft | 517 kts | 125° |
| 2026-05-09 09:38 | 37.27911 | 24.85241 | 37070 ft | 517 kts | 125° |
| 2026-05-09 09:39 | 37.24035 | 24.92890 | 37068 ft | 518 kts | 125° |
| 2026-05-09 09:39 | 37.20174 | 25.00493 | 37070 ft | 518 kts | 125° |
| 2026-05-09 09:40 | 37.16292 | 25.08122 | 37077 ft | 518 kts | 125° |
| 2026-05-09 09:40 | 37.12423 | 25.15706 | 37073 ft | 518 kts | 125° |
| 2026-05-09 09:41 | 37.08535 | 25.23293 | 37073 ft | 517 kts | 125° |
| 2026-05-09 09:41 | 37.04643 | 25.30871 | 37076 ft | 517 kts | 126° |
| 2026-05-09 09:42 | 37.00748 | 25.38441 | 37052 ft | 516 kts | 126° |
| 2026-05-09 09:42 | 36.96875 | 25.45954 | 37057 ft | 516 kts | 126° |
| 2026-05-09 09:43 | 36.92966 | 25.53516 | 37044 ft | 515 kts | 125° |
| 2026-05-09 09:43 | 36.89101 | 25.60981 | 37056 ft | 514 kts | 125° |
| 2026-05-09 09:44 | 36.85211 | 25.68480 | 37068 ft | 513 kts | 125° |
| 2026-05-09 09:44 | 36.81319 | 25.75962 | 37074 ft | 512 kts | 125° |
| 2026-05-09 09:45 | 36.77462 | 25.83361 | 37069 ft | 511 kts | 125° |
| 2026-05-09 09:45 | 36.73574 | 25.90804 | 37072 ft | 511 kts | 125° |
| 2026-05-09 09:46 | 36.69684 | 25.98233 | 37088 ft | 510 kts | 125° |
| 2026-05-09 09:46 | 36.65815 | 26.05607 | 37071 ft | 510 kts | 125° |
| 2026-05-09 09:47 | 36.61921 | 26.13013 | 37076 ft | 510 kts | 126° |
| 2026-05-09 09:47 | 36.58055 | 26.20352 | 37085 ft | 510 kts | 126° |
| 2026-05-09 09:48 | 36.54446 | 26.27968 | 37060 ft | 511 kts | 117° |
| 2026-05-09 09:48 | 36.51346 | 26.35936 | 37074 ft | 511 kts | 116° |
| 2026-05-09 09:49 | 36.48260 | 26.43906 | 37081 ft | 511 kts | 117° |
| 2026-05-09 09:49 | 36.45121 | 26.51785 | 37080 ft | 511 kts | 117° |
| 2026-05-09 09:50 | 36.41940 | 26.59679 | 37091 ft | 511 kts | 117° |
| 2026-05-09 09:50 | 36.38753 | 26.67581 | 37083 ft | 511 kts | 117° |
| 2026-05-09 09:51 | 36.35587 | 26.75425 | 37086 ft | 510 kts | 117° |
| 2026-05-09 09:51 | 36.32373 | 26.83311 | 37086 ft | 510 kts | 118° |
| 2026-05-09 09:52 | 36.29158 | 26.91157 | 37090 ft | 509 kts | 118° |
| 2026-05-09 09:52 | 36.25964 | 26.98943 | 37082 ft | 509 kts | 118° |
| 2026-05-09 09:53 | 36.22756 | 27.06750 | 37084 ft | 508 kts | 118° |
| 2026-05-09 09:53 | 36.19541 | 27.14557 | 37083 ft | 507 kts | 118° |
| 2026-05-09 09:54 | 36.16348 | 27.22294 | 37076 ft | 506 kts | 118° |
| 2026-05-09 09:54 | 36.13140 | 27.30048 | 37073 ft | 504 kts | 118° |
| 2026-05-09 09:55 | 36.09951 | 27.37738 | 37086 ft | 503 kts | 118° |
| 2026-05-09 09:55 | 36.06754 | 27.45458 | 37086 ft | 503 kts | 118° |
| 2026-05-09 09:56 | 36.03579 | 27.53121 | 37087 ft | 502 kts | 118° |
| 2026-05-09 09:56 | 36.00406 | 27.60761 | 37091 ft | 501 kts | 118° |
| 2026-05-09 09:57 | 35.97216 | 27.68419 | 37088 ft | 500 kts | 118° |
| 2026-05-09 09:57 | 35.93486 | 27.75631 | 37104 ft | 497 kts | 128° |
| 2026-05-09 09:58 | 35.89397 | 27.82441 | 37103 ft | 496 kts | 129° |
| 2026-05-09 09:58 | 35.85290 | 27.89318 | 37095 ft | 497 kts | 128° |
| 2026-05-09 09:59 | 35.81231 | 27.96232 | 37096 ft | 497 kts | 128° |
| 2026-05-09 09:59 | 35.77212 | 28.03107 | 37107 ft | 497 kts | 128° |
| 2026-05-09 10:00 | 35.73157 | 28.10024 | 37103 ft | 498 kts | 128° |
| 2026-05-09 10:00 | 35.69095 | 28.16933 | 37095 ft | 498 kts | 128° |
| 2026-05-09 10:01 | 35.65024 | 28.23845 | 37090 ft | 498 kts | 128° |
| 2026-05-09 10:01 | 35.60973 | 28.30703 | 37103 ft | 498 kts | 128° |
| 2026-05-09 10:02 | 35.56892 | 28.37586 | 37090 ft | 497 kts | 128° |
| 2026-05-09 10:02 | 35.52818 | 28.44445 | 37096 ft | 497 kts | 128° |
| 2026-05-09 10:03 | 35.48740 | 28.51303 | 37098 ft | 496 kts | 128° |
| 2026-05-09 10:03 | 35.44660 | 28.58150 | 37097 ft | 496 kts | 128° |
| 2026-05-09 10:04 | 35.40608 | 28.64938 | 37101 ft | 496 kts | 128° |
| 2026-05-09 10:04 | 35.36537 | 28.71743 | 37098 ft | 495 kts | 128° |
| 2026-05-09 10:05 | 35.32452 | 28.78560 | 37098 ft | 495 kts | 128° |
| 2026-05-09 10:05 | 35.28373 | 28.85352 | 37100 ft | 495 kts | 128° |
| 2026-05-09 10:06 | 35.24289 | 28.92141 | 37102 ft | 494 kts | 128° |
| 2026-05-09 10:06 | 35.20222 | 28.98887 | 37075 ft | 494 kts | 128° |
| 2026-05-09 10:07 | 35.16153 | 29.05625 | 37100 ft | 494 kts | 128° |
| 2026-05-09 10:07 | 35.12055 | 29.12398 | 37108 ft | 494 kts | 128° |
| 2026-05-09 10:08 | 35.07981 | 29.19118 | 37106 ft | 494 kts | 128° |
| 2026-05-09 10:08 | 35.03907 | 29.25827 | 37117 ft | 494 kts | 128° |
| 2026-05-09 10:09 | 34.99797 | 29.32583 | 37109 ft | 495 kts | 128° |
| 2026-05-09 10:09 | 34.96063 | 29.39614 | 37118 ft | 496 kts | 122° |
| 2026-05-09 10:10 | 34.92546 | 29.46856 | 37112 ft | 497 kts | 121° |
| 2026-05-09 10:10 | 34.89019 | 29.54116 | 37104 ft | 497 kts | 122° |
| 2026-05-09 10:11 | 34.85457 | 29.61335 | 37113 ft | 497 kts | 122° |
| 2026-05-09 10:11 | 34.81873 | 29.68535 | 37111 ft | 497 kts | 122° |
| 2026-05-09 10:12 | 34.78283 | 29.75720 | 37112 ft | 497 kts | 122° |
| 2026-05-09 10:12 | 34.74687 | 29.82908 | 37106 ft | 497 kts | 122° |
| 2026-05-09 10:13 | 34.71120 | 29.90028 | 37112 ft | 496 kts | 122° |
| 2026-05-09 10:13 | 34.67527 | 29.97184 | 37111 ft | 496 kts | 122° |
| 2026-05-09 10:14 | 34.63934 | 30.04327 | 37114 ft | 495 kts | 122° |
| 2026-05-09 10:14 | 34.60943 | 30.10262 | 37108 ft | 495 kts | 122° |
| 2026-05-09 10:15 | 34.56756 | 30.18553 | 37111 ft | 494 kts | 122° |
| 2026-05-09 10:15 | 34.53746 | 30.24500 | 37112 ft | 494 kts | 122° |
| 2026-05-09 10:16 | 34.50147 | 30.31600 | 37111 ft | 493 kts | 122° |
| 2026-05-09 10:16 | 34.46568 | 30.38646 | 37112 ft | 493 kts | 122° |
| 2026-05-09 10:17 | 34.42962 | 30.45729 | 37112 ft | 493 kts | 122° |
| 2026-05-09 10:17 | 34.39357 | 30.52800 | 37112 ft | 493 kts | 122° |
| 2026-05-09 10:18 | 34.35742 | 30.59872 | 37112 ft | 493 kts | 123° |
| 2026-05-09 10:18 | 34.32154 | 30.66881 | 37112 ft | 494 kts | 123° |
| 2026-05-09 10:19 | 34.28526 | 30.73951 | 37112 ft | 494 kts | 123° |
| 2026-05-09 10:19 | 34.24898 | 30.81009 | 37112 ft | 494 kts | 123° |
| 2026-05-09 10:20 | 34.21262 | 30.88068 | 37111 ft | 494 kts | 123° |
| 2026-05-09 10:20 | 34.17622 | 30.95121 | 37115 ft | 494 kts | 123° |
| 2026-05-09 10:21 | 34.14025 | 31.02078 | 37119 ft | 494 kts | 123° |
| 2026-05-09 10:21 | 34.10376 | 31.09120 | 37110 ft | 494 kts | 123° |
| 2026-05-09 10:22 | 34.06727 | 31.16149 | 37111 ft | 493 kts | 123° |
| 2026-05-09 10:22 | 34.03095 | 31.23132 | 37111 ft | 493 kts | 124° |
| 2026-05-09 10:23 | 33.99455 | 31.30117 | 37115 ft | 492 kts | 124° |
| 2026-05-09 10:23 | 33.95811 | 31.37095 | 37110 ft | 492 kts | 124° |
| 2026-05-09 10:24 | 33.92189 | 31.44018 | 37113 ft | 492 kts | 124° |
| 2026-05-09 10:24 | 33.88540 | 31.50980 | 37115 ft | 491 kts | 124° |
| 2026-05-09 10:25 | 33.84885 | 31.57926 | 37184 ft | 489 kts | 125° |
| 2026-05-09 10:25 | 33.81263 | 31.64792 | 37114 ft | 491 kts | 124° |
| 2026-05-09 10:26 | 33.77638 | 31.71684 | 37109 ft | 490 kts | 124° |
| 2026-05-09 10:26 | 33.73999 | 31.78584 | 37112 ft | 490 kts | 124° |
| 2026-05-09 10:27 | 33.70369 | 31.85447 | 37107 ft | 489 kts | 124° |
| 2026-05-09 10:27 | 33.66708 | 31.92352 | 37107 ft | 489 kts | 125° |
| 2026-05-09 10:28 | 33.63052 | 31.99233 | 37111 ft | 489 kts | 125° |
| 2026-05-09 10:28 | 33.59394 | 32.06106 | 37111 ft | 489 kts | 125° |
| 2026-05-09 10:29 | 33.55725 | 32.12986 | 37106 ft | 489 kts | 125° |
| 2026-05-09 10:29 | 33.53887 | 32.16427 | 36970 ft | 491 kts | 125° |
| 2026-05-09 10:29 | 33.52039 | 32.19884 | 36691 ft | 491 kts | 125° |
| 2026-05-09 10:29 | 33.50197 | 32.23328 | 36292 ft | 489 kts | 125° |
| 2026-05-09 10:30 | 33.48394 | 32.26697 | 35874 ft | 484 kts | 125° |
| 2026-05-09 10:30 | 33.46584 | 32.30077 | 35465 ft | 479 kts | 125° |
| 2026-05-09 10:30 | 33.44789 | 32.33424 | 35055 ft | 475 kts | 125° |
| 2026-05-09 10:30 | 33.43007 | 32.36743 | 34650 ft | 471 kts | 125° |
| 2026-05-09 10:31 | 33.41240 | 32.40032 | 34254 ft | 468 kts | 125° |
| 2026-05-09 10:31 | 33.39486 | 32.43292 | 33811 ft | 464 kts | 125° |
| 2026-05-09 10:31 | 33.37738 | 32.46539 | 33371 ft | 461 kts | 126° |
| 2026-05-09 10:31 | 33.36008 | 32.49749 | 32958 ft | 457 kts | 126° |
| 2026-05-09 10:32 | 33.34293 | 32.52928 | 32557 ft | 453 kts | 126° |
| 2026-05-09 10:32 | 33.32594 | 32.56075 | 32165 ft | 449 kts | 126° |
| 2026-05-09 10:32 | 33.30906 | 32.59201 | 31761 ft | 445 kts | 126° |
| 2026-05-09 10:32 | 33.29234 | 32.62293 | 31383 ft | 441 kts | 126° |
| 2026-05-09 10:33 | 33.27592 | 32.65326 | 31021 ft | 438 kts | 126° |
| 2026-05-09 10:33 | 33.25940 | 32.68375 | 30648 ft | 435 kts | 126° |
| 2026-05-09 10:33 | 33.24300 | 32.71401 | 30282 ft | 432 kts | 126° |
| 2026-05-09 10:33 | 33.22668 | 32.74408 | 29861 ft | 429 kts | 126° |
| 2026-05-09 10:34 | 33.21048 | 32.77392 | 29445 ft | 426 kts | 126° |
| 2026-05-09 10:34 | 33.17856 | 32.83264 | 28661 ft | 420 kts | 126° |
| 2026-05-09 10:34 | 33.16272 | 32.86174 | 28264 ft | 417 kts | 126° |
| 2026-05-09 10:35 | 33.14688 | 32.89080 | 27865 ft | 414 kts | 125° |
| 2026-05-09 10:35 | 33.13142 | 32.91917 | 27500 ft | 412 kts | 125° |
| 2026-05-09 10:35 | 33.11584 | 32.94771 | 27126 ft | 409 kts | 125° |
| 2026-05-09 10:35 | 33.10036 | 32.97608 | 26758 ft | 407 kts | 125° |
| 2026-05-09 10:36 | 33.08509 | 33.00401 | 26387 ft | 405 kts | 125° |
| 2026-05-09 10:36 | 33.06956 | 33.03242 | 26012 ft | 403 kts | 125° |
| 2026-05-09 10:36 | 33.05454 | 33.05987 | 25649 ft | 401 kts | 125° |
| 2026-05-09 10:36 | 33.03937 | 33.08757 | 25282 ft | 399 kts | 125° |
| 2026-05-09 10:37 | 33.02416 | 33.11532 | 24909 ft | 397 kts | 125° |
| 2026-05-09 10:37 | 33.00907 | 33.14282 | 24543 ft | 396 kts | 125° |
| 2026-05-09 10:37 | 32.99403 | 33.17023 | 24167 ft | 395 kts | 125° |
| 2026-05-09 10:37 | 32.97903 | 33.19753 | 23797 ft | 394 kts | 125° |
| 2026-05-09 10:38 | 32.96401 | 33.22485 | 23379 ft | 393 kts | 125° |
| 2026-05-09 10:38 | 32.94911 | 33.25195 | 22982 ft | 391 kts | 125° |
| 2026-05-09 10:38 | 32.93424 | 33.27896 | 22586 ft | 388 kts | 125° |
| 2026-05-09 10:38 | 32.91950 | 33.30573 | 22213 ft | 386 kts | 125° |
| 2026-05-09 10:39 | 32.90477 | 33.33245 | 21846 ft | 383 kts | 125° |
| 2026-05-09 10:39 | 32.89038 | 33.35854 | 21489 ft | 381 kts | 125° |
| 2026-05-09 10:39 | 32.87582 | 33.38491 | 21129 ft | 379 kts | 125° |
| 2026-05-09 10:39 | 32.86136 | 33.41108 | 20762 ft | 377 kts | 125° |
| 2026-05-09 10:40 | 32.84696 | 33.43713 | 20406 ft | 376 kts | 125° |
| 2026-05-09 10:40 | 32.83264 | 33.46301 | 20052 ft | 374 kts | 125° |
| 2026-05-09 10:40 | 32.81836 | 33.48882 | 19685 ft | 373 kts | 125° |
| 2026-05-09 10:40 | 32.80412 | 33.51453 | 19324 ft | 372 kts | 125° |
| 2026-05-09 10:41 | 32.78990 | 33.54017 | 18943 ft | 372 kts | 125° |
| 2026-05-09 10:41 | 32.77571 | 33.56574 | 18589 ft | 371 kts | 125° |
| 2026-05-09 10:41 | 32.76151 | 33.59133 | 18194 ft | 371 kts | 125° |
| 2026-05-09 10:41 | 32.74753 | 33.61650 | 17816 ft | 369 kts | 125° |
| 2026-05-09 10:42 | 32.73342 | 33.64188 | 17446 ft | 367 kts | 124° |
| 2026-05-09 10:42 | 32.71935 | 33.66717 | 17091 ft | 365 kts | 124° |
| 2026-05-09 10:42 | 32.70538 | 33.69228 | 16723 ft | 363 kts | 124° |
| 2026-05-09 10:42 | 32.69143 | 33.71733 | 16380 ft | 360 kts | 124° |
| 2026-05-09 10:43 | 32.67781 | 33.74177 | 16040 ft | 358 kts | 124° |
| 2026-05-09 10:43 | 32.66409 | 33.76639 | 15697 ft | 356 kts | 124° |
| 2026-05-09 10:43 | 32.65045 | 33.79082 | 15358 ft | 354 kts | 124° |
| 2026-05-09 10:43 | 32.63687 | 33.81515 | 15019 ft | 352 kts | 124° |
| 2026-05-09 10:44 | 32.62334 | 33.83936 | 14678 ft | 351 kts | 124° |
| 2026-05-09 10:44 | 32.60987 | 33.86346 | 14334 ft | 349 kts | 124° |
| 2026-05-09 10:44 | 32.59647 | 33.88742 | 13997 ft | 348 kts | 124° |
| 2026-05-09 10:44 | 32.58326 | 33.91103 | 13624 ft | 347 kts | 124° |
| 2026-05-09 10:45 | 32.56993 | 33.93480 | 13254 ft | 345 kts | 124° |
| 2026-05-09 10:46 | 32.50849 | 34.01668 | 12182 ft | 320 kts | 136° |
| 2026-05-09 10:46 | 32.49296 | 34.03545 | 11947 ft | 316 kts | 135° |
| 2026-05-09 10:46 | 32.47771 | 34.05418 | 11713 ft | 315 kts | 135° |
| 2026-05-09 10:46 | 32.46258 | 34.07293 | 11482 ft | 314 kts | 134° |
| 2026-05-09 10:47 | 32.44754 | 34.09162 | 11255 ft | 312 kts | 134° |
| 2026-05-09 10:47 | 32.43278 | 34.10999 | 11025 ft | 311 kts | 135° |
| 2026-05-09 10:47 | 32.41887 | 34.12950 | 10791 ft | 311 kts | 126° |
| 2026-05-09 10:47 | 32.40683 | 34.15058 | 10570 ft | 307 kts | 124° |
| 2026-05-09 10:48 | 32.39534 | 34.17167 | 10337 ft | 301 kts | 124° |
| 2026-05-09 10:48 | 32.38400 | 34.19234 | 10106 ft | 296 kts | 124° |
| 2026-05-09 10:48 | 32.37275 | 34.21249 | 9881 ft | 291 kts | 124° |
| 2026-05-09 10:48 | 32.36161 | 34.23218 | 9645 ft | 285 kts | 125° |
| 2026-05-09 10:49 | 32.35062 | 34.25143 | 9414 ft | 279 kts | 125° |
| 2026-05-09 10:49 | 32.33993 | 34.27008 | 9212 ft | 274 kts | 126° |
| 2026-05-09 10:49 | 32.32925 | 34.28870 | 9003 ft | 273 kts | 126° |
| 2026-05-09 10:49 | 32.31860 | 34.30722 | 8793 ft | 272 kts | 126° |
| 2026-05-09 10:50 | 32.30794 | 34.32573 | 8572 ft | 271 kts | 125° |
| 2026-05-09 10:50 | 32.29733 | 34.34413 | 8359 ft | 271 kts | 125° |
| 2026-05-09 10:50 | 32.28673 | 34.36252 | 8154 ft | 271 kts | 125° |
| 2026-05-09 10:50 | 32.27609 | 34.38099 | 7933 ft | 271 kts | 125° |
| 2026-05-09 10:51 | 32.26547 | 34.39941 | 7728 ft | 271 kts | 126° |
| 2026-05-09 10:51 | 32.25484 | 34.41782 | 7508 ft | 271 kts | 126° |
| 2026-05-09 10:51 | 32.24433 | 34.43602 | 7293 ft | 272 kts | 125° |
| 2026-05-09 10:51 | 32.23365 | 34.45449 | 7086 ft | 272 kts | 126° |
| 2026-05-09 10:52 | 32.22302 | 34.47285 | 6952 ft | 269 kts | 125° |
| 2026-05-09 10:52 | 32.21250 | 34.49099 | 6825 ft | 266 kts | 126° |
| 2026-05-09 10:52 | 32.20210 | 34.50892 | 6701 ft | 263 kts | 126° |
| 2026-05-09 10:52 | 32.19176 | 34.52671 | 6583 ft | 262 kts | 126° |
| 2026-05-09 10:53 | 32.18141 | 34.54452 | 6467 ft | 264 kts | 125° |
| 2026-05-09 10:53 | 32.17098 | 34.56244 | 6344 ft | 266 kts | 125° |
| 2026-05-09 10:53 | 32.16063 | 34.58070 | 6225 ft | 269 kts | 123° |
| 2026-05-09 10:53 | 32.15088 | 34.59960 | 6099 ft | 270 kts | 122° |
| 2026-05-09 10:54 | 32.14139 | 34.61843 | 5981 ft | 271 kts | 122° |
| 2026-05-09 10:54 | 32.13163 | 34.63780 | 5860 ft | 272 kts | 122° |
| 2026-05-09 10:54 | 32.12210 | 34.65662 | 5737 ft | 271 kts | 122° |
| 2026-05-09 10:54 | 32.11259 | 34.67565 | 5608 ft | 267 kts | 117° |
| 2026-05-09 10:55 | 32.10623 | 34.69599 | 5361 ft | 264 kts | 105° |
| 2026-05-09 10:55 | 32.10162 | 34.71694 | 5130 ft | 264 kts | 103° |
| 2026-05-09 10:55 | 32.09721 | 34.73811 | 5031 ft | 265 kts | 104° |
| 2026-05-09 10:55 | 32.09276 | 34.75908 | 5010 ft | 262 kts | 104° |
| 2026-05-09 10:56 | 32.08825 | 34.77976 | 5005 ft | 259 kts | 105° |
| 2026-05-09 10:56 | 32.08373 | 34.80006 | 4997 ft | 260 kts | 105° |
| 2026-05-09 10:56 | 32.07905 | 34.82077 | 5006 ft | 263 kts | 105° |
| 2026-05-09 10:56 | 32.07433 | 34.84142 | 5009 ft | 264 kts | 105° |
| 2026-05-09 10:57 | 32.06951 | 34.86235 | 4999 ft | 263 kts | 105° |
| 2026-05-09 10:57 | 32.06470 | 34.88313 | 4995 ft | 263 kts | 105° |
| 2026-05-09 10:57 | 32.05988 | 34.90390 | 4996 ft | 262 kts | 105° |
| 2026-05-09 10:57 | 32.05507 | 34.92456 | 4999 ft | 262 kts | 105° |
| 2026-05-09 10:58 | 32.05023 | 34.94529 | 5000 ft | 262 kts | 105° |
| 2026-05-09 10:58 | 32.04539 | 34.96600 | 5002 ft | 262 kts | 105° |
| 2026-05-09 10:58 | 32.04057 | 34.98662 | 4999 ft | 262 kts | 105° |
| 2026-05-09 10:58 | 32.03578 | 35.00704 | 5010 ft | 262 kts | 104° |
| 2026-05-09 10:59 | 32.03092 | 35.02776 | 5014 ft | 262 kts | 105° |
| 2026-05-09 10:59 | 32.02606 | 35.04851 | 5008 ft | 262 kts | 105° |
| 2026-05-09 10:59 | 32.02124 | 35.06912 | 5018 ft | 262 kts | 105° |
| 2026-05-09 10:59 | 32.01636 | 35.08979 | 5007 ft | 261 kts | 105° |
| 2026-05-09 11:00 | 32.01151 | 35.11038 | 5011 ft | 260 kts | 104° |
| 2026-05-09 11:00 | 32.00669 | 35.13090 | 5022 ft | 260 kts | 105° |
| 2026-05-09 11:00 | 31.99896 | 35.14994 | 4998 ft | 259 kts | 131° |
| 2026-05-09 11:00 | 31.98461 | 35.16161 | 4939 ft | 256 kts | 160° |
| 2026-05-09 11:01 | 31.96727 | 35.16508 | 4766 ft | 251 kts | 178° |
| 2026-05-09 11:01 | 31.95005 | 35.16488 | 4628 ft | 247 kts | 186° |
| 2026-05-09 11:01 | 31.93341 | 35.16043 | 4435 ft | 241 kts | 196° |
| 2026-05-09 11:01 | 31.91754 | 35.15498 | 4277 ft | 234 kts | 200° |
| 2026-05-09 11:02 | 31.90419 | 35.14468 | 4144 ft | 233 kts | 232° |
| 2026-05-09 11:02 | 31.89736 | 35.12788 | 4019 ft | 223 kts | 260° |
| 2026-05-09 11:02 | 31.89637 | 35.11032 | 3877 ft | 209 kts | 274° |
| 2026-05-09 11:02 | 31.89655 | 35.09924 | 3751 ft | 197 kts | 274° |
| 2026-05-09 11:03 | 31.90258 | 35.07997 | 3642 ft | 193 kts | 306° |
| 2026-05-09 11:03 | 31.90991 | 35.06706 | 3481 ft | 184 kts | 306° |
| 2026-05-09 11:03 | 31.91677 | 35.05490 | 3382 ft | 177 kts | 303° |
| 2026-05-09 11:03 | 31.92317 | 35.04309 | 3180 ft | 166 kts | 304° |
| 2026-05-09 11:04 | 31.92707 | 35.03556 | 3021 ft | 160 kts | 303° |
| 2026-05-09 11:04 | 31.93294 | 35.02411 | 2789 ft | 165 kts | 303° |
| 2026-05-09 11:04 | 31.93875 | 35.01282 | 2579 ft | 162 kts | 303° |
| 2026-05-09 11:04 | 31.94447 | 35.00172 | 2345 ft | 155 kts | 303° |
| 2026-05-09 11:05 | 31.94975 | 34.99147 | 2126 ft | 140 kts | 305° |
| 2026-05-09 11:05 | 31.95496 | 34.98147 | 1950 ft | 150 kts | 306° |
| 2026-05-09 11:05 | 31.96048 | 34.97077 | 1724 ft | 153 kts | 306° |
| 2026-05-09 11:05 | 31.96590 | 34.96024 | 1511 ft | 148 kts | 305° |
| 2026-05-09 11:06 | 31.97101 | 34.95036 | 1311 ft | 148 kts | 305° |
| 2026-05-09 11:06 | 31.97636 | 34.93991 | 1115 ft | 148 kts | 303° |
| 2026-05-09 11:06 | 31.98111 | 34.92947 | 960 ft | 140 kts | 305° |
| 2026-05-09 11:06 | 31.98636 | 34.91962 | 736 ft | 141 kts | 307° |
| 2026-05-09 11:07 | 31.99159 | 34.90985 | 549 ft | 141 kts | 307° |
| 2026-05-09 11:07 | 31.99672 | 34.90021 | 309 ft | 137 kts | 303° |
| 2026-05-09 11:07 | 32.00174 | 34.89074 | 133 ft | 134 kts | 303° |
| 2026-05-09 11:07 | 32.00594 | 34.88266 | 120 ft | 100 kts | 302° |
| 2026-05-09 11:08 | 32.00880 | 34.87719 | 115 ft | 58 kts | 300° |
| 2026-05-09 11:08 | 32.01024 | 34.87436 | 115 ft | 32 kts | 293° |
| 2026-05-09 11:08 | 32.01063 | 34.87223 | 115 ft | 20 kts | 274° |
| 2026-05-09 11:08 | 32.01057 | 34.87064 | 111 ft | 18 kts | 259° |
| 2026-05-09 11:09 | 32.01011 | 34.87033 | 114 ft | 6 kts | 154° |
| 2026-05-09 11:09 | 32.00979 | 34.87094 | 112 ft | 14 kts | 118° |
| 2026-05-09 11:09 | 32.00902 | 34.87241 | 112 ft | 26 kts | 117° |
| 2026-05-09 11:09 | 32.00809 | 34.87426 | 116 ft | 26 kts | 121° |
| 2026-05-09 11:10 | 32.00720 | 34.87599 | 117 ft | 24 kts | 121° |
| 2026-05-09 11:10 | 32.00637 | 34.87759 | 116 ft | 23 kts | 121° |
| 2026-05-09 11:10 | 32.00574 | 34.87880 | 118 ft | 14 kts | 122° |
| 2026-05-09 11:10 | 32.00514 | 34.87963 | 117 ft | 7 kts | 169° |
| 2026-05-09 11:11 | 32.00461 | 34.87925 | 117 ft | 14 kts | 213° |
| 2026-05-09 11:11 | 32.00370 | 34.87859 | 119 ft | 17 kts | 211° |
| 2026-05-09 11:11 | 32.00285 | 34.87800 | 116 ft | 12 kts | 212° |
| 2026-05-09 11:11 | 32.00221 | 34.87779 | 114 ft | 7 kts | 138° |
| 2026-05-09 11:12 | 32.00194 | 34.87826 | 118 ft | 5 kts | 120° |
| 2026-05-09 11:12 | 32.00189 | 34.87836 | 118 ft | 1 kts | 120° |
| 2026-05-09 11:12 | 32.00188 | 34.87839 | 115 ft | 0 kts | 120° |
| 2026-05-09 11:12 | 32.00187 | 34.87840 | 115 ft | 1 kts | 120° |